Time;durP1;ratioP1;P1;durP2;ratioP2;P2;SDS_P1;SDS_P2;PMS_P1;PMS_P2;Temp;Humidity;BMP_temperature;BMP_pressure;BME280_temperature;BME280_humidity;BME280_pressure;Samples;Min_cycle;Max_cycle;Signal;HPM_P1;HPM_P2
2021/10/22 00:02:19;;;;;;;11.78;5.40;;;;;;;11.97;76.22;100439.88;1834978;76;20954;-77
2021/10/22 00:04:46;;;;;;;10.30;6.05;;;;;;;11.99;76.31;100437.98;1834662;77;21384;-76
2021/10/22 00:07:14;;;;;;;6.40;5.45;;;;;;;11.98;76.34;100441.09;1834719;76;21407;-76
2021/10/22 00:09:40;;;;;;;9.33;5.30;;;;;;;11.97;76.39;100443.34;1834670;77;20923;-75
2021/10/22 00:12:09;;;;;;;10.50;6.25;;;;;;;11.98;76.47;100442.41;1834903;77;20823;-76
2021/10/22 00:14:36;;;;;;;8.20;6.20;;;;;;;11.99;76.55;100444.55;1834629;76;20859;-77
2021/10/22 00:17:04;;;;;;;9.03;5.70;;;;;;;11.98;76.58;100448.98;1834642;77;21397;-76
2021/10/22 00:19:32;;;;;;;6.58;5.95;;;;;;;12.00;76.68;100452.31;1834584;77;20910;-77
2021/10/22 00:22:00;;;;;;;8.73;7.58;;;;;;;12.02;76.65;100443.84;1834776;77;20836;-78
2021/10/22 00:24:27;;;;;;;7.30;5.42;;;;;;;12.07;76.61;100441.38;1835220;77;21483;-78
2021/10/22 00:26:53;;;;;;;11.63;6.22;;;;;;;12.08;76.56;100434.72;1835183;78;21383;-78
2021/10/22 00:29:20;;;;;;;9.58;6.03;;;;;;;12.10;76.46;100428.88;1835101;77;21538;-77
2021/10/22 00:31:48;;;;;;;6.53;5.67;;;;;;;12.14;76.43;100424.23;1834581;77;20926;-77
2021/10/22 00:34:15;;;;;;;7.83;6.25;;;;;;;12.16;76.34;100421.89;1834653;77;20871;-77
2021/10/22 00:36:43;;;;;;;9.73;6.42;;;;;;;12.19;76.29;100415.09;1834709;77;21466;-77
2021/10/22 00:39:10;;;;;;;9.65;6.58;;;;;;;12.21;76.23;100410.56;1834754;77;21059;-77
2021/10/22 00:41:39;;;;;;;8.40;6.55;;;;;;;12.23;76.15;100390.75;1834712;76;20874;-76
2021/10/22 00:44:06;;;;;;;8.88;5.87;;;;;;;12.22;76.11;100396.45;1805929;78;22365;-77
2021/10/22 00:46:37;;;;;;;9.20;6.20;;;;;;;12.23;76.13;100395.53;1835059;77;20863;-77
2021/10/22 00:49:02;;;;;;;9.60;6.87;;;;;;;12.21;76.20;100402.69;1834485;77;22155;-78
2021/10/22 00:51:29;;;;;;;11.12;6.35;;;;;;;12.20;76.22;100419.39;1834954;77;20832;-77
2021/10/22 00:53:56;;;;;;;7.87;6.15;;;;;;;12.21;76.26;100408.42;1834815;77;20899;-77
2021/10/22 00:56:24;;;;;;;14.45;6.67;;;;;;;12.22;76.34;100419.29;1835036;77;21364;-77
2021/10/22 00:58:51;;;;;;;9.08;6.65;;;;;;;12.24;76.33;100415.59;1834648;77;20981;-75
2021/10/22 01:01:18;;;;;;;10.03;6.35;;;;;;;12.28;76.36;100414.09;1835145;77;21088;-78
2021/10/22 01:03:46;;;;;;;8.40;6.50;;;;;;;12.29;76.37;100393.41;1834748;78;21446;-79
2021/10/22 01:06:13;;;;;;;7.75;5.97;;;;;;;12.33;76.32;100404.91;1834929;76;20899;-78
2021/10/22 01:08:39;;;;;;;7.28;5.37;;;;;;;12.36;76.28;100419.63;1834687;77;20985;-78
2021/10/22 01:11:06;;;;;;;9.28;5.65;;;;;;;12.38;76.27;100415.09;1835225;77;20903;-78
2021/10/22 01:13:33;;;;;;;9.30;6.50;;;;;;;12.40;76.24;100434.24;1805892;78;21529;-78
2021/10/22 01:16:01;;;;;;;6.55;5.78;;;;;;;12.43;76.24;100425.67;1835159;78;20915;-77
2021/10/22 01:18:29;;;;;;;8.10;5.78;;;;;;;12.46;76.19;100444.34;1835032;77;20902;-76
2021/10/22 01:21:03;;;;;;;8.90;6.37;;;;;;;12.51;76.13;100444.01;1834950;76;20926;-76
2021/10/22 01:23:30;;;;;;;12.37;5.72;;;;;;;12.56;76.03;100443.20;1834791;77;20978;-78
2021/10/22 01:25:57;;;;;;;9.83;6.33;;;;;;;12.61;75.91;100439.30;1834882;76;21091;-78
2021/10/22 01:28:24;;;;;;;9.58;6.40;;;;;;;12.64;75.78;100436.44;1834498;77;20945;-78
2021/10/22 01:30:51;;;;;;;9.10;5.33;;;;;;;12.69;75.68;100438.73;1834902;77;20903;-77
2021/10/22 01:33:18;;;;;;;8.70;5.53;;;;;;;12.73;75.55;100445.47;1834784;77;20872;-77
2021/10/22 01:35:49;;;;;;;9.68;6.08;;;;;;;12.77;75.46;100439.04;1845733;77;20868;-77
2021/10/22 01:38:20;;;;;;;7.53;6.20;;;;;;;12.79;75.39;100441.09;1859965;77;21545;-76
2021/10/22 01:40:49;;;;;;;11.78;5.95;;;;;;;12.79;75.32;100434.51;1859772;76;20962;-77
2021/10/22 01:43:16;;;;;;;8.53;5.83;;;;;;;12.84;75.22;100447.33;1859791;76;20954;-78
2021/10/22 01:45:44;;;;;;;9.33;5.92;;;;;;;12.84;75.21;100447.33;1859996;77;20911;-77
2021/10/22 01:48:11;;;;;;;12.82;6.33;;;;;;;12.84;75.22;100456.06;1859839;76;21428;-76
2021/10/22 01:50:39;;;;;;;9.25;5.55;;;;;;;12.86;75.27;100461.22;1859952;77;21908;-76
2021/10/22 01:53:06;;;;;;;7.30;5.47;;;;;;;12.87;75.28;100454.99;1859939;77;20872;-75
2021/10/22 01:55:34;;;;;;;9.53;5.40;;;;;;;12.91;75.26;100456.45;1859833;77;20912;-76
2021/10/22 01:58:02;;;;;;;6.58;5.40;;;;;;;12.93;75.26;100447.98;1859882;77;20915;-75
2021/10/22 02:00:30;;;;;;;11.97;5.70;;;;;;;12.97;75.22;100456.50;1859943;76;20907;-76
2021/10/22 02:02:57;;;;;;;13.55;10.05;;;;;;;13.00;75.18;100454.95;1859831;77;21095;-77
2021/10/22 02:05:23;;;;;;;12.85;7.65;;;;;;;13.01;75.15;100449.59;1859946;76;20867;-78
2021/10/22 02:07:50;;;;;;;7.55;4.97;;;;;;;13.06;75.10;100461.09;1860032;77;20939;-76
2021/10/22 02:10:17;;;;;;;9.38;6.30;;;;;;;13.08;74.97;100463.14;1860014;77;21406;-76
2021/10/22 02:12:44;;;;;;;10.90;6.12;;;;;;;13.11;74.84;100462.07;1860067;77;20946;-76
2021/10/22 02:15:11;;;;;;;8.18;5.62;;;;;;;13.10;74.79;100458.61;1860346;77;21800;-75
2021/10/22 02:17:38;;;;;;;8.18;6.05;;;;;;;13.11;74.73;100461.59;1859762;76;20879;-76
2021/10/22 02:20:06;;;;;;;8.23;5.70;;;;;;;13.12;74.69;100465.08;1860031;77;20871;-77
2021/10/22 02:22:33;;;;;;;13.43;6.20;;;;;;;13.12;74.70;100458.02;1860184;77;20927;-76
2021/10/22 02:25:00;;;;;;;9.18;5.00;;;;;;;13.13;74.74;100455.73;1859872;77;20907;-76
2021/10/22 02:27:28;;;;;;;11.15;5.30;;;;;;;13.16;74.74;100452.89;1860065;77;21051;-76
2021/10/22 02:29:56;;;;;;;8.65;6.70;;;;;;;13.16;74.80;100454.66;1859995;77;20864;-77
2021/10/22 02:32:25;;;;;;;10.50;6.53;;;;;;;13.18;74.89;100458.86;1859797;77;20848;-76
2021/10/22 02:34:51;;;;;;;11.10;5.58;;;;;;;13.23;74.82;100462.50;1859788;77;20939;-75
2021/10/22 02:37:18;;;;;;;9.05;6.65;;;;;;;13.24;74.73;100466.31;1860010;77;21467;-76
2021/10/22 02:39:45;;;;;;;7.60;6.30;;;;;;;13.25;74.70;100469.78;1860054;77;21112;-77
2021/10/22 02:42:12;;;;;;;11.68;6.03;;;;;;;13.25;74.67;100452.66;1859692;77;20899;-76
2021/10/22 02:44:39;;;;;;;9.58;6.15;;;;;;;13.25;74.60;100441.68;1859856;77;21154;-77
2021/10/22 02:47:08;;;;;;;8.70;6.20;;;;;;;13.25;74.61;100433.78;1859910;77;20914;-78
2021/10/22 02:49:36;;;;;;;11.25;6.08;;;;;;;13.25;74.59;100427.65;1859955;77;20895;-79
2021/10/22 02:52:05;;;;;;;14.23;6.62;;;;;;;13.24;74.52;100416.28;1859563;77;21241;-77
2021/10/22 02:54:33;;;;;;;12.93;7.83;;;;;;;13.24;74.58;100418.08;1859819;77;21018;-77
2021/10/22 02:56:59;;;;;;;10.38;6.22;;;;;;;13.23;74.60;100423.84;1860374;77;21029;-78
2021/10/22 02:59:26;;;;;;;10.08;6.87;;;;;;;13.22;74.62;100423.94;1860406;77;21420;-76
2021/10/22 03:01:53;;;;;;;11.48;6.72;;;;;;;13.21;74.63;100416.52;1860462;77;20954;-77
2021/10/22 03:04:20;;;;;;;12.45;7.72;;;;;;;13.20;74.60;100410.88;1860182;77;22126;-76
2021/10/22 03:06:47;;;;;;;10.50;6.60;;;;;;;13.19;74.67;100416.28;1860291;77;20898;-77
2021/10/22 03:09:14;;;;;;;11.00;7.53;;;;;;;13.16;74.72;100422.62;1860284;77;20859;-76
2021/10/22 03:11:42;;;;;;;11.90;6.45;;;;;;;13.16;74.69;100420.44;1860307;76;20951;-77
2021/10/22 03:14:10;;;;;;;12.10;6.90;;;;;;;13.16;74.74;100421.30;1861041;77;20981;-75
2021/10/22 03:16:37;;;;;;;12.82;6.12;;;;;;;13.17;74.86;100430.86;1860583;77;21108;-77
2021/10/22 03:19:05;;;;;;;10.30;6.17;;;;;;;13.16;74.99;100434.92;1860148;77;20899;-77
2021/10/22 03:21:34;;;;;;;13.95;7.12;;;;;;;13.16;75.13;100430.97;1860378;76;20923;-78
2021/10/22 03:24:01;;;;;;;14.78;6.83;;;;;;;13.14;75.23;100423.66;1860016;77;20892;-76
2021/10/22 03:26:30;;;;;;;13.90;7.25;;;;;;;13.14;75.24;100414.44;1860244;77;21347;-78
2021/10/22 03:28:56;;;;;;;13.72;7.35;;;;;;;13.13;75.23;100424.14;1860289;77;21493;-78
2021/10/22 03:31:24;;;;;;;10.35;7.60;;;;;;;13.10;75.20;100427.50;1860317;76;20923;-77
2021/10/22 03:33:52;;;;;;;11.50;7.55;;;;;;;13.10;75.16;100430.13;1860009;77;21447;-77
2021/10/22 03:36:19;;;;;;;9.58;7.25;;;;;;;13.10;75.18;100444.61;1855574;76;20941;-78
2021/10/22 03:38:46;;;;;;;12.33;6.22;;;;;;;13.09;75.23;100435.84;1849309;77;21352;-78
2021/10/22 03:41:12;;;;;;;12.23;8.03;;;;;;;13.08;75.30;100445.20;1849785;77;21464;-78
2021/10/22 03:43:39;;;;;;;14.50;8.33;;;;;;;13.06;75.46;100444.81;1849100;77;20869;-78
2021/10/22 03:46:06;;;;;;;11.22;8.68;;;;;;;13.08;75.49;100440.77;1849069;77;20901;-78
2021/10/22 03:48:33;;;;;;;15.65;8.98;;;;;;;13.08;75.34;100442.56;1849345;76;21027;-76
2021/10/22 03:51:01;;;;;;;14.85;7.90;;;;;;;13.02;75.26;100437.25;1849355;77;21485;-78
2021/10/22 03:53:29;;;;;;;12.58;7.40;;;;;;;12.99;75.19;100446.70;1849289;76;21134;-79
2021/10/22 03:55:56;;;;;;;14.53;7.35;;;;;;;12.95;75.16;100455.77;1849405;76;20882;-78
2021/10/22 03:58:23;;;;;;;15.72;7.25;;;;;;;12.92;75.32;100459.95;1849184;77;20952;-79
2021/10/22 04:00:50;;;;;;;12.53;7.90;;;;;;;12.89;75.52;100464.94;1849649;77;21454;-80
2021/10/22 04:03:17;;;;;;;12.93;8.85;;;;;;;12.89;75.72;100476.78;1849381;77;20885;-78
2021/10/22 04:05:45;;;;;;;17.82;11.60;;;;;;;12.86;75.87;100477.84;1849218;77;21619;-77
2021/10/22 04:08:12;;;;;;;16.45;10.88;;;;;;;12.92;75.92;100490.22;1849155;76;20902;-78
2021/10/22 04:10:43;;;;;;;16.80;11.20;;;;;;;12.95;75.80;100496.57;1849186;77;20886;-78
2021/10/22 04:13:11;;;;;;;12.45;9.00;;;;;;;12.99;75.66;100490.97;1849672;77;20897;-78
2021/10/22 04:15:43;;;;;;;15.18;8.98;;;;;;;13.03;75.51;100486.34;1849120;77;20916;-77
2021/10/22 04:18:10;;;;;;;14.20;8.15;;;;;;;13.04;75.41;100486.69;1849422;77;21073;-77
2021/10/22 04:20:38;;;;;;;17.73;10.32;;;;;;;13.03;75.44;100489.80;1849185;77;20901;-76
2021/10/22 04:23:04;;;;;;;17.55;9.20;;;;;;;13.03;75.46;100499.02;1849174;77;21454;-77
2021/10/22 04:25:34;;;;;;;16.30;11.78;;;;;;;13.04;75.43;100508.58;1849230;77;20948;-77
2021/10/22 04:28:01;;;;;;;17.87;11.83;;;;;;;13.05;75.40;100509.45;1849220;77;21406;-78
2021/10/22 04:30:28;;;;;;;14.40;9.88;;;;;;;13.05;75.33;100508.13;1849511;77;21036;-78
2021/10/22 04:32:56;;;;;;;15.80;10.25;;;;;;;13.06;75.15;100509.31;1849194;76;20956;-78
2021/10/22 04:35:22;;;;;;;15.18;11.15;;;;;;;13.04;75.14;100499.37;1849524;77;20963;-78
2021/10/22 04:40:32;;;;;;;14.83;11.55;;;;;;;13.02;75.14;100501.27;1860365;77;20946;-77
2021/10/22 04:43:04;;;;;;;20.12;12.58;;;;;;;13.02;75.23;100504.38;1859995;77;21535;-77
2021/10/22 04:45:33;;;;;;;18.32;13.32;;;;;;;13.00;75.20;100500.53;1860320;76;20841;-77
2021/10/22 04:48:01;;;;;;;16.25;12.88;;;;;;;12.98;75.12;100511.68;1860007;77;21539;-78
2021/10/22 04:50:29;;;;;;;19.27;13.53;;;;;;;12.95;75.11;100521.58;1859770;77;20923;-77
2021/10/22 04:52:56;;;;;;;16.02;12.10;;;;;;;12.91;75.12;100511.73;1860067;76;21558;-77
2021/10/22 04:55:24;;;;;;;21.15;12.30;;;;;;;12.91;75.16;100508.27;1860245;77;21053;-77
2021/10/22 04:57:53;;;;;;;18.57;11.73;;;;;;;12.91;75.23;100519.63;1859820;76;21405;-77
2021/10/22 05:00:21;;;;;;;17.62;11.53;;;;;;;12.90;75.32;100517.95;1860372;77;21088;-77
2021/10/22 05:02:48;;;;;;;21.27;12.50;;;;;;;12.94;75.35;100514.16;1859832;77;20882;-77
2021/10/22 05:05:16;;;;;;;20.37;11.65;;;;;;;12.95;75.31;100517.14;1859942;76;20890;-78
2021/10/22 05:07:43;;;;;;;16.77;11.03;;;;;;;12.98;75.32;100516.95;1859709;76;21112;-79
2021/10/22 05:10:11;;;;;;;34.10;19.52;;;;;;;13.03;75.19;100519.24;1859842;76;21396;-78
2021/10/22 05:12:39;;;;;;;22.20;14.13;;;;;;;13.04;75.09;100520.42;1859932;77;21377;-77
2021/10/22 05:15:09;;;;;;;18.07;12.25;;;;;;;13.08;74.98;100528.13;1860082;77;21357;-78
2021/10/22 05:17:36;;;;;;;21.12;11.97;;;;;;;13.10;74.80;100525.74;1860444;77;21305;-76
2021/10/22 05:20:05;;;;;;;18.10;11.83;;;;;;;13.13;74.67;100515.46;1859848;77;21114;-77
2021/10/22 05:22:32;;;;;;;20.10;11.53;;;;;;;13.15;74.57;100520.98;1860233;77;20981;-77
2021/10/22 05:24:59;;;;;;;18.42;11.65;;;;;;;13.17;74.46;100523.02;1859738;77;20937;-77
2021/10/22 05:27:26;;;;;;;16.50;11.33;;;;;;;13.20;74.43;100525.42;1859705;77;20864;-76
2021/10/22 05:29:54;;;;;;;15.70;11.78;;;;;;;13.25;74.30;100522.45;1859812;76;20962;-77
2021/10/22 05:32:21;;;;;;;16.57;13.55;;;;;;;13.33;74.12;100524.58;1860218;76;21117;-76
2021/10/22 05:34:48;;;;;;;17.10;13.28;;;;;;;13.40;73.78;100533.22;1859961;77;20894;-76
2021/10/22 05:37:16;;;;;;;17.95;12.68;;;;;;;13.62;73.76;100527.70;1859843;77;20910;-76
2021/10/22 05:39:43;;;;;;;19.92;14.45;;;;;;;13.91;72.84;100527.31;1859877;77;20966;-75
2021/10/22 05:42:10;;;;;;;19.98;13.50;;;;;;;14.09;71.94;100529.41;1859925;77;20989;-76
2021/10/22 05:44:37;;;;;;;20.17;12.00;;;;;;;14.19;71.00;100536.13;1859917;77;21043;-75
2021/10/22 05:47:04;;;;;;;22.40;13.28;;;;;;;14.22;70.76;100529.28;1860194;77;20868;-76
2021/10/22 05:49:32;;;;;;;17.12;13.60;;;;;;;14.25;70.39;100530.84;1859984;77;20971;-76
2021/10/22 05:51:59;;;;;;;30.23;15.28;;;;;;;14.28;70.32;100514.80;1860225;77;21409;-76
2021/10/22 05:54:26;;;;;;;25.85;14.65;;;;;;;14.30;70.06;100505.80;1860024;77;20875;-78
2021/10/22 05:56:53;;;;;;;17.75;13.78;;;;;;;14.45;69.87;100493.23;1860206;77;21080;-79
2021/10/22 05:59:20;;;;;;;21.70;13.95;;;;;;;14.79;69.39;100502.95;1859759;76;20902;-77
2021/10/22 06:01:47;;;;;;;20.15;12.35;;;;;;;15.20;68.19;100484.23;1860334;76;20926;-80
2021/10/22 06:04:14;;;;;;;20.90;12.37;;;;;;;15.60;67.13;100504.74;1860035;77;21428;-79
2021/10/22 06:06:42;;;;;;;18.95;12.40;;;;;;;16.70;64.17;100530.27;1859967;77;20884;-80
2021/10/22 06:09:09;;;;;;;19.52;12.37;;;;;;;16.70;64.17;100530.27;1859966;76;21508;-79
2021/10/22 06:11:36;;;;;;;15.00;10.30;;;;;;;17.32;63.18;100522.56;1860127;77;20902;-79
2021/10/22 06:14:05;;;;;;;13.48;10.00;;;;;;;17.88;60.90;100540.11;1859728;77;20927;-79
2021/10/22 06:16:32;;;;;;;18.90;12.03;;;;;;;18.12;59.16;100560.39;1829848;77;21005;-79
2021/10/22 06:19:02;;;;;;;19.48;11.12;;;;;;;18.10;58.55;100574.30;1860040;77;20927;-79
2021/10/22 06:24:04;;;;;;;16.90;11.53;;;;;;;17.68;58.62;100589.15;1860194;76;20871;-80
2021/10/22 06:26:39;;;;;;;19.82;12.65;;;;;;;17.44;59.00;100600.14;1860220;77;20997;-81
2021/10/22 06:29:06;;;;;;;16.70;11.78;;;;;;;17.14;59.54;100593.08;1860185;77;21310;-80
2021/10/22 06:31:36;;;;;;;17.20;12.53;;;;;;;16.83;60.20;100590.95;1860122;76;21427;-78
2021/10/22 06:34:03;;;;;;;14.68;11.12;;;;;;;16.56;60.87;100587.91;1859917;77;21221;-80
2021/10/22 06:36:29;;;;;;;15.43;10.90;;;;;;;16.31;61.48;100594.92;1859723;76;20915;-78
2021/10/22 06:38:56;;;;;;;17.00;9.60;;;;;;;16.10;62.14;100608.99;1859841;77;21282;-78
2021/10/22 06:41:23;;;;;;;16.57;10.85;;;;;;;15.98;62.68;100604.70;1859764;77;20934;-79
2021/10/22 06:43:50;;;;;;;16.12;10.88;;;;;;;15.92;63.17;100607.88;1859998;77;20836;-79
2021/10/22 06:46:17;;;;;;;21.42;12.80;;;;;;;15.92;63.40;100607.88;1859787;77;21510;-77
2021/10/22 06:51:50;;;;;;;20.72;13.95;;;;;;;15.93;63.42;100605.09;1816388;79;22587;-77
2021/10/22 06:54:18;;;;;;;22.35;14.80;;;;;;;15.82;63.55;100617.04;1789461;80;20970;-81
2021/10/22 06:56:46;;;;;;;20.52;14.53;;;;;;;15.73;63.66;100607.22;1789412;80;21145;-78
2021/10/22 06:59:13;;;;;;;23.15;15.40;;;;;;;15.66;63.88;100613.46;1789255;80;20887;-76
2021/10/22 07:01:41;;;;;;;23.70;16.55;;;;;;;15.63;64.15;100611.53;1789270;80;20936;-78
2021/10/22 07:04:11;;;;;;;26.65;17.52;;;;;;;15.60;64.34;100623.70;1789474;80;20943;-79
2021/10/22 07:09:24;;;;;;;21.95;15.85;;;;;;;15.52;64.71;100617.23;1789381;80;21546;-78
2021/10/22 07:11:55;;;;;;;23.70;16.45;;;;;;;15.52;64.91;100633.58;1789282;80;20974;-78
2021/10/22 07:14:25;;;;;;;25.43;18.37;;;;;;;15.52;65.01;100633.09;1789721;80;21468;-78
2021/10/22 07:16:54;;;;;;;20.43;16.45;;;;;;;15.54;64.79;100626.37;1789517;80;20908;-79
2021/10/22 07:19:22;;;;;;;27.98;19.25;;;;;;;15.56;64.23;100613.84;1789449;80;21346;-73
2021/10/22 07:21:50;;;;;;;26.68;20.65;;;;;;;15.56;64.23;100613.84;1789419;80;21503;-76
2021/10/22 07:24:22;;;;;;;21.30;18.98;;;;;;;15.55;64.63;100614.81;1789625;80;20955;-77
2021/10/22 07:26:45;;;;;;;21.35;17.85;;;;;;;15.57;64.66;100621.31;1788371;80;20888;-78
2021/10/22 07:29:12;;;;;;;30.50;23.20;;;;;;;15.65;64.82;100623.69;1789672;80;20856;-78
2021/10/22 07:31:39;;;;;;;28.15;21.95;;;;;;;15.65;64.82;100623.69;1789461;80;21338;-78
2021/10/22 07:34:07;;;;;;;28.77;20.32;;;;;;;15.75;64.26;100621.98;1789565;80;21105;-79
2021/10/22 07:36:34;;;;;;;25.10;19.23;;;;;;;15.75;64.26;100621.98;1789607;80;20939;-78
2021/10/22 07:39:01;;;;;;;34.85;22.20;;;;;;;15.81;64.16;100619.34;1789676;80;20872;-78
2021/10/22 07:41:29;;;;;;;24.37;17.98;;;;;;;15.84;64.12;100617.75;1789393;80;20987;-77
2021/10/22 07:43:55;;;;;;;25.45;18.17;;;;;;;15.90;63.95;100617.75;1789755;80;21421;-77
2021/10/22 07:46:23;;;;;;;21.87;16.50;;;;;;;16.01;63.51;100619.48;1789422;80;21076;-79
2021/10/22 07:48:49;;;;;;;25.88;17.70;;;;;;;16.01;63.51;100619.48;1789651;80;21511;-79
2021/10/22 07:51:16;;;;;;;21.85;17.10;;;;;;;16.02;63.10;100615.88;1780812;80;21206;-78
2021/10/22 07:53:43;;;;;;;29.77;18.92;;;;;;;16.02;62.54;100615.88;1775945;80;20893;-78
2021/10/22 07:56:10;;;;;;;24.18;18.80;;;;;;;16.11;62.76;100618.59;1775986;80;20975;-77
2021/10/22 07:58:38;;;;;;;22.40;17.67;;;;;;;16.11;62.76;100618.59;1775822;80;21216;-78
2021/10/22 08:01:05;;;;;;;25.25;18.15;;;;;;;16.43;62.02;100619.04;1775699;80;20885;-78
2021/10/22 08:03:34;;;;;;;25.00;17.80;;;;;;;16.92;61.08;100614.02;1775349;80;21359;-79
2021/10/22 08:06:02;;;;;;;28.23;19.10;;;;;;;17.54;59.29;100615.59;1775449;80;20928;-80
2021/10/22 08:08:30;;;;;;;24.40;17.25;;;;;;;18.16;57.65;100615.34;1775709;80;21483;-79
2021/10/22 08:10:56;;;;;;;24.37;16.02;;;;;;;18.81;55.79;100614.19;1775113;80;21084;-79
2021/10/22 08:13:23;;;;;;;29.82;23.27;;;;;;;19.49;54.13;100619.64;1775352;80;20896;-79
2021/10/22 08:15:51;;;;;;;25.17;17.23;;;;;;;20.12;52.61;100620.08;1775391;80;20909;-78
2021/10/22 08:18:17;;;;;;;19.45;15.20;;;;;;;20.68;50.83;100628.19;1775121;80;20975;-80
2021/10/22 08:20:58;;;;;;;19.32;14.47;;;;;;;21.21;49.91;100619.09;1775765;80;20892;-80
2021/10/22 08:23:14;;;;;;;20.80;15.30;;;;;;;21.82;48.50;100614.92;1769684;80;21164;-81
2021/10/22 08:25:40;;;;;;;17.85;14.25;;;;;;;22.33;46.85;100611.61;1775437;80;21334;-79
2021/10/22 08:28:07;;;;;;;18.05;13.05;;;;;;;22.73;45.98;100612.52;1775930;80;20999;-79
2021/10/22 08:30:34;;;;;;;17.65;13.78;;;;;;;23.18;44.85;100623.08;1777335;80;20881;-79
2021/10/22 08:33:01;;;;;;;17.25;13.95;;;;;;;23.65;43.86;100626.67;1776051;80;20879;-80
2021/10/22 08:35:29;;;;;;;16.50;13.08;;;;;;;24.07;42.63;100630.23;1775899;80;21134;-84
2021/10/22 08:37:57;;;;;;;20.23;14.23;;;;;;;24.51;41.77;100632.73;1775808;80;20971;-82
2021/10/22 08:40:24;;;;;;;17.12;13.38;;;;;;;24.84;40.83;100635.06;1775804;80;20943;-80
2021/10/22 08:42:52;;;;;;;17.05;13.68;;;;;;;25.08;40.10;100634.77;1775354;80;20904;-82
2021/10/22 08:45:20;;;;;;;18.35;12.63;;;;;;;25.31;39.38;100633.32;1775459;80;21449;-80
2021/10/22 08:47:46;;;;;;;21.12;13.28;;;;;;;25.53;38.78;100634.72;1775316;80;21068;-80
2021/10/22 08:50:20;;;;;;;18.70;12.25;;;;;;;25.67;38.35;100639.70;1775671;80;20919;-80
2021/10/22 08:52:50;;;;;;;17.45;12.03;;;;;;;25.79;38.03;100638.16;1746311;82;21023;-82
2021/10/22 08:55:19;;;;;;;14.83;9.10;;;;;;;25.91;37.57;100635.33;1784186;80;21396;-79
2021/10/22 08:57:47;;;;;;;11.20;8.75;;;;;;;26.01;36.79;100635.00;1783663;80;20840;-81
2021/10/22 09:00:18;;;;;;;13.62;10.43;;;;;;;26.07;36.65;100632.06;1784076;79;21125;-80
2021/10/22 09:02:49;;;;;;;11.73;10.43;;;;;;;26.24;36.30;100618.67;1746561;81;20962;-85
2021/10/22 09:05:22;;;;;;;14.40;10.72;;;;;;;26.43;36.11;100614.45;1784160;80;20936;-82
2021/10/22 09:07:55;;;;;;;12.37;9.10;;;;;;;26.62;36.03;100610.27;1783661;80;20951;-82
2021/10/22 09:10:26;;;;;;;16.00;10.95;;;;;;;26.80;35.28;100610.58;1784050;80;20872;-84
2021/10/22 09:12:58;;;;;;;17.57;9.20;;;;;;;26.77;34.98;100609.64;1783891;79;21141;-81
2021/10/22 09:15:32;;;;;;;11.07;8.83;;;;;;;26.66;34.78;100613.70;1784478;80;20912;-84
2021/10/22 09:18:07;;;;;;;10.72;8.18;;;;;;;26.46;34.79;100613.55;1783575;80;20975;-82
2021/10/22 09:20:39;;;;;;;15.25;8.68;;;;;;;26.22;34.92;100613.48;1784762;80;20947;-81
2021/10/22 09:23:06;;;;;;;11.65;8.63;;;;;;;26.05;35.20;100607.53;1782438;80;20884;-82
2021/10/22 09:25:36;;;;;;;14.28;9.98;;;;;;;26.01;35.47;100614.35;1783813;80;21082;-82
2021/10/22 09:28:03;;;;;;;14.75;11.68;;;;;;;26.14;35.38;100603.37;1784270;79;20856;-83
2021/10/22 09:30:42;;;;;;;14.28;10.28;;;;;;;26.19;35.57;100607.16;1783642;79;21388;-79
2021/10/22 09:33:16;;;;;;;15.72;10.63;;;;;;;26.34;35.44;100603.00;1783545;80;20919;-80
2021/10/22 09:35:50;;;;;;;12.45;9.08;;;;;;;26.75;34.99;100598.77;1783840;80;20907;-80
2021/10/22 09:38:24;;;;;;;12.63;9.28;;;;;;;27.12;34.33;100596.63;1783614;79;21159;-80
2021/10/22 09:40:54;;;;;;;14.47;11.03;;;;;;;27.56;33.81;100596.16;1783628;80;20915;-81
2021/10/22 09:43:35;;;;;;;14.83;9.95;;;;;;;27.85;32.62;100597.68;1783537;80;20947;-81
2021/10/22 09:46:13;;;;;;;9.88;8.63;;;;;;;28.03;32.30;100602.45;1783499;80;20923;-80
2021/10/22 09:48:46;;;;;;;12.45;10.58;;;;;;;28.38;31.61;100598.71;1783910;79;20939;-81
2021/10/22 09:51:31;;;;;;;13.48;8.23;;;;;;;28.67;31.51;100596.08;1783857;79;21107;-81
2021/10/22 09:54:09;;;;;;;15.18;8.43;;;;;;;28.91;30.96;100594.55;1783643;80;21452;-81
2021/10/22 09:56:37;;;;;;;13.00;8.78;;;;;;;29.11;30.79;100600.72;1783803;80;20971;-81
2021/10/22 09:59:13;;;;;;;10.10;8.50;;;;;;;29.41;30.53;100600.14;1783652;80;21437;-81
2021/10/22 10:01:43;;;;;;;14.03;9.90;;;;;;;29.76;29.84;100595.69;1753040;80;20931;-80
2021/10/22 10:04:13;;;;;;;9.65;7.30;;;;;;;29.95;29.16;100597.95;1783508;80;21655;-80
2021/10/22 10:06:41;;;;;;;10.28;7.87;;;;;;;30.02;28.86;100589.25;1783464;80;20950;-79
2021/10/22 10:09:09;;;;;;;11.35;8.13;;;;;;;30.01;28.77;100584.88;1783546;80;20959;-81
2021/10/22 10:11:39;;;;;;;40.75;28.38;;;;;;;30.13;28.67;100587.70;1783506;80;20970;-81
2021/10/22 10:14:11;;;;;;;13.75;10.15;;;;;;;30.26;28.39;100571.84;1783621;79;21431;-80
2021/10/22 10:16:37;;;;;;;21.97;14.33;;;;;;;30.29;27.96;100575.52;1783836;79;21124;-81
2021/10/22 10:19:11;;;;;;;25.35;14.15;;;;;;;30.07;28.32;100579.94;1783566;80;20928;-82
2021/10/22 10:21:48;;;;;;;15.48;11.10;;;;;;;29.76;28.58;100588.94;1783420;80;20979;-81
2021/10/22 10:24:29;;;;;;;11.63;9.25;;;;;;;29.70;28.90;100587.95;1746073;82;21358;-81
2021/10/22 10:27:18;;;;;;;12.23;8.45;;;;;;;29.87;28.79;100595.52;1783455;79;20840;-81
2021/10/22 10:29:51;;;;;;;11.00;6.90;;;;;;;30.03;28.09;100586.02;1783526;80;22010;-81
2021/10/22 10:32:23;;;;;;;9.40;6.35;;;;;;;30.02;28.11;100591.95;1783375;80;20931;-82
2021/10/22 10:35:01;;;;;;;9.83;7.12;;;;;;;30.06;28.09;100594.53;1783428;80;20967;-81
2021/10/22 10:37:41;;;;;;;13.78;6.45;;;;;;;30.05;27.91;100595.56;1783397;79;20939;-82
2021/10/22 10:40:12;;;;;;;9.13;6.33;;;;;;;30.11;27.66;100593.86;1783768;79;21467;-82
2021/10/22 10:42:46;;;;;;;18.70;6.80;;;;;;;30.14;27.40;100586.64;1783984;79;21927;-82
2021/10/22 10:45:27;;;;;;;11.68;6.45;;;;;;;30.12;27.28;100581.98;1783623;79;20896;-81
2021/10/22 10:48:17;;;;;;;14.35;7.08;;;;;;;29.94;27.79;100578.17;1783903;80;20883;-83
2021/10/22 10:50:56;;;;;;;15.65;7.83;;;;;;;29.78;27.70;100575.20;1783090;80;20954;-81
2021/10/22 10:53:38;;;;;;;9.83;6.85;;;;;;;29.41;27.77;100577.17;1780800;80;21556;-81
2021/10/22 10:56:26;;;;;;;8.50;6.45;;;;;;;28.73;28.46;100569.60;1780921;79;21393;-83
2021/10/22 10:58:52;;;;;;;8.00;6.97;;;;;;;28.01;29.23;100565.96;1780961;80;20940;-81
2021/10/22 11:01:29;;;;;;;11.12;8.58;;;;;;;27.42;30.25;100569.73;1780770;79;20963;-81
2021/10/22 11:03:56;;;;;;;9.48;7.92;;;;;;;27.04;30.99;100567.52;1780620;80;20923;-80
2021/10/22 11:06:48;;;;;;;13.48;8.80;;;;;;;26.61;31.78;100568.24;1780886;80;20903;-82
2021/10/22 11:09:17;;;;;;;11.40;7.83;;;;;;;26.18;32.40;100567.02;1780271;79;21320;-81
2021/10/22 11:12:00;;;;;;;11.53;7.95;;;;;;;25.72;32.76;100562.06;1780824;80;21349;-82
2021/10/22 11:14:41;;;;;;;12.77;7.53;;;;;;;25.31;33.48;100566.73;1781202;80;21420;-79
2021/10/22 11:17:09;;;;;;;13.48;7.60;;;;;;;24.91;34.28;100567.05;1780667;79;20919;-81
2021/10/22 11:19:40;;;;;;;13.22;8.28;;;;;;;24.57;34.93;100569.81;1780713;80;20892;-78
2021/10/22 11:22:12;;;;;;;10.43;7.28;;;;;;;24.26;35.55;100564.59;1780771;80;21282;-80
2021/10/22 11:24:40;;;;;;;11.73;7.45;;;;;;;23.97;35.94;100560.02;1780589;80;21365;-81
2021/10/22 11:27:12;;;;;;;12.10;8.23;;;;;;;23.75;36.43;100563.04;1780767;80;21409;-78
2021/10/22 11:29:45;;;;;;;13.55;10.00;;;;;;;23.58;36.54;100562.28;1779380;80;21002;-80
2021/10/22 11:32:21;;;;;;;13.27;8.57;;;;;;;23.34;37.15;100568.16;1744244;82;20939;-80
2021/10/22 11:34:59;;;;;;;12.70;8.35;;;;;;;23.10;37.41;100570.45;1743106;82;21177;-80